createdAt,value
2017-08-11T00:00:17.944Z,17.70
2017-08-11T00:01:23.778Z,17.69
2017-08-11T00:02:30.693Z,17.68
2017-08-11T00:03:36.750Z,17.66
2017-08-11T00:04:42.777Z,17.73
2017-08-11T00:05:48.804Z,17.74
2017-08-11T00:06:54.854Z,17.76
2017-08-11T00:08:00.954Z,17.80
2017-08-11T00:09:08.998Z,17.76
2017-08-11T00:10:15.022Z,17.70
2017-08-11T00:11:20.853Z,17.72
2017-08-11T00:12:27.334Z,17.75
2017-08-11T00:13:33.371Z,17.72
2017-08-11T00:14:39.438Z,17.71
2017-08-11T00:15:45.479Z,17.73
2017-08-11T00:16:51.509Z,17.66
2017-08-11T00:17:57.537Z,17.69
2017-08-11T00:19:03.566Z,17.70
2017-08-11T00:20:14.913Z,17.70
2017-08-11T00:21:20.956Z,17.53
2017-08-11T00:22:26.981Z,17.59
2017-08-11T00:23:33.009Z,17.57
2017-08-11T00:24:39.038Z,17.54
2017-08-11T00:25:45.103Z,17.50
2017-08-11T00:26:51.136Z,17.41
2017-08-11T00:27:57.162Z,17.45
2017-08-11T00:29:03.197Z,17.47
2017-08-11T00:30:09.233Z,17.47
2017-08-11T00:31:15.370Z,17.49
2017-08-11T00:32:21.045Z,17.42
2017-08-11T00:33:27.078Z,17.50
2017-08-11T00:34:33.119Z,17.56
2017-08-11T00:35:39.136Z,17.56
2017-08-11T00:36:45.198Z,17.55
2017-08-11T00:37:51.239Z,17.51
2017-08-11T00:38:57.265Z,17.39
2017-08-11T00:40:03.300Z,17.34
2017-08-11T00:41:09.325Z,17.29
2017-08-11T00:42:15.466Z,17.32
2017-08-11T00:43:21.502Z,17.32
2017-08-11T00:44:27.517Z,17.29
2017-08-11T00:45:33.536Z,17.33
2017-08-11T00:46:39.568Z,17.27
2017-08-11T00:47:45.625Z,17.35
2017-08-11T00:48:51.650Z,17.37
2017-08-11T00:49:57.681Z,17.37
2017-08-11T00:51:03.713Z,17.32
2017-08-11T00:52:09.753Z,17.36
2017-08-11T00:53:15.899Z,17.32
2017-08-11T00:54:21.917Z,17.33
2017-08-11T00:55:27.946Z,17.35
2017-08-11T00:56:33.977Z,17.34
2017-08-11T00:57:40.008Z,17.20
2017-08-11T00:58:46.082Z,17.25
2017-08-11T00:59:52.109Z,17.21
2017-08-11T01:00:58.136Z,17.21
2017-08-11T01:02:04.161Z,17.26
2017-08-11T01:03:10.201Z,17.31
2017-08-11T01:04:16.261Z,17.32
2017-08-11T01:05:22.084Z,17.28
2017-08-11T01:06:28.116Z,17.21
2017-08-11T01:07:33.933Z,17.22
2017-08-11T01:08:39.945Z,17.25
2017-08-11T01:09:45.988Z,17.27
2017-08-11T01:10:52.000Z,17.22
2017-08-11T01:11:58.009Z,17.13
2017-08-11T01:13:04.032Z,17.12
2017-08-11T01:14:10.048Z,17.09
2017-08-11T01:15:15.932Z,17.03
2017-08-11T01:16:21.754Z,17.06
2017-08-11T01:17:27.789Z,17.05
2017-08-11T01:18:33.816Z,17.00
2017-08-11T01:19:39.104Z,16.95
2017-08-11T01:20:44.960Z,16.98
2017-08-11T01:21:50.994Z,16.94
2017-08-11T01:22:57.024Z,16.93
2017-08-11T01:24:07.002Z,17.01
2017-08-11T01:25:13.033Z,17.06
2017-08-11T01:26:19.099Z,17.06
2017-08-11T01:27:25.131Z,17.09
2017-08-11T01:28:31.160Z,17.04
2017-08-11T01:29:37.191Z,16.98
2017-08-11T01:30:43.189Z,16.91
2017-08-11T01:31:49.249Z,16.98
2017-08-11T01:32:55.285Z,16.92
2017-08-11T01:34:01.316Z,16.97
2017-08-11T01:35:07.340Z,17.04
2017-08-11T01:36:13.357Z,17.01
2017-08-11T01:37:19.393Z,16.96
2017-08-11T01:38:25.439Z,16.94
2017-08-11T01:39:31.448Z,16.89
2017-08-11T01:40:37.096Z,16.91
2017-08-11T01:41:43.102Z,16.88
2017-08-11T01:42:49.137Z,16.82
2017-08-11T01:43:55.153Z,16.83
2017-08-11T01:45:01.162Z,16.84
2017-08-11T01:46:07.181Z,16.76
2017-08-11T01:47:13.209Z,16.70
2017-08-11T01:48:19.002Z,16.71
2017-08-11T01:49:24.887Z,16.62
2017-08-11T01:50:30.910Z,16.61
2017-08-11T01:51:36.935Z,16.59
2017-08-11T01:52:42.944Z,16.62
2017-08-11T01:53:48.997Z,16.68
2017-08-11T01:54:55.047Z,16.69
2017-08-11T01:56:00.722Z,16.73
2017-08-11T01:57:06.741Z,16.66
2017-08-11T01:58:12.761Z,16.60
2017-08-11T01:59:18.900Z,16.64
2017-08-11T02:00:24.927Z,16.63
2017-08-11T02:01:30.387Z,16.57
2017-08-11T02:02:36.419Z,16.58
2017-08-11T02:03:42.518Z,16.62
2017-08-11T02:05:02.514Z,16.62
2017-08-11T02:06:14.555Z,16.64
2017-08-11T02:07:20.203Z,16.70
2017-08-11T02:08:25.843Z,16.73
2017-08-11T02:09:31.701Z,16.75
2017-08-11T02:10:37.704Z,16.73
2017-08-11T02:11:43.701Z,16.75
2017-08-11T02:12:49.704Z,16.83
2017-08-11T02:13:55.338Z,16.83
2017-08-11T02:15:01.406Z,16.84
2017-08-11T02:16:07.422Z,16.87
2017-08-11T02:17:13.427Z,16.84
2017-08-11T02:18:19.421Z,16.85
2017-08-11T02:19:25.693Z,16.89
2017-08-11T02:20:31.380Z,16.86
2017-08-11T02:21:37.389Z,16.89
2017-08-11T02:22:43.392Z,16.89
2017-08-11T02:23:49.402Z,16.89
2017-08-11T02:24:55.418Z,16.90
2017-08-11T02:26:01.460Z,16.90
2017-08-11T02:27:07.456Z,16.90
2017-08-11T02:28:13.465Z,16.91
2017-08-11T02:29:19.512Z,16.92
2017-08-11T02:30:25.515Z,16.94
2017-08-11T02:31:31.555Z,16.92
2017-08-11T02:32:37.561Z,16.93
2017-08-11T02:33:43.561Z,16.94
2017-08-11T02:34:49.563Z,16.96
2017-08-11T02:35:55.568Z,16.88
2017-08-11T02:37:01.609Z,16.86
2017-08-11T02:38:07.620Z,16.82
2017-08-11T02:39:13.638Z,16.85
2017-08-11T02:40:19.741Z,16.92
2017-08-11T02:41:25.737Z,16.96
2017-08-11T02:42:31.772Z,16.98
2017-08-11T02:43:37.779Z,16.97
2017-08-11T02:44:43.769Z,16.96
2017-08-11T02:45:50.953Z,16.97
2017-08-11T02:46:56.946Z,17.01
2017-08-11T02:48:02.977Z,16.98
2017-08-11T02:49:08.992Z,17.01
2017-08-11T02:50:14.990Z,17.06
2017-08-11T02:51:21.010Z,17.05
2017-08-11T02:52:27.018Z,17.03
2017-08-11T02:53:33.060Z,17.08
2017-08-11T02:54:39.046Z,17.03
2017-08-11T02:55:45.048Z,17.03
2017-08-11T02:56:51.053Z,16.98
2017-08-11T02:57:57.060Z,16.98
2017-08-11T02:59:03.101Z,16.98
2017-08-11T03:00:09.099Z,16.99
2017-08-11T03:01:14.890Z,17.02
2017-08-11T03:02:21.097Z,17.02
2017-08-11T03:03:27.097Z,16.99
2017-08-11T03:04:33.135Z,17.01
2017-08-11T03:05:39.138Z,17.02
2017-08-11T03:06:45.201Z,17.06
2017-08-11T03:07:51.232Z,17.07
2017-08-11T03:08:56.857Z,17.05
2017-08-11T03:10:02.903Z,17.01
2017-08-11T03:11:08.913Z,17.00
2017-08-11T03:12:14.925Z,17.01
2017-08-11T03:13:20.924Z,16.98
2017-08-11T03:14:26.926Z,16.97
2017-08-11T03:15:32.969Z,16.97
2017-08-11T03:16:38.976Z,16.95
2017-08-11T03:17:44.968Z,16.98
2017-08-11T03:18:50.986Z,16.97
2017-08-11T03:19:56.993Z,16.99
2017-08-11T03:21:02.650Z,16.99
2017-08-11T03:22:14.212Z,17.03
2017-08-11T03:23:22.003Z,17.04
2017-08-11T03:24:27.994Z,17.03
2017-08-11T03:25:33.993Z,17.04
2017-08-11T03:26:39.834Z,17.02
2017-08-11T03:27:45.488Z,17.03
2017-08-11T03:28:51.487Z,17.02
2017-08-11T03:29:57.481Z,16.96
2017-08-11T03:31:03.477Z,16.98
2017-08-11T03:32:10.330Z,16.98
2017-08-11T03:33:16.516Z,17.01
2017-08-11T03:34:23.769Z,16.97
2017-08-11T03:35:30.113Z,16.94
2017-08-11T03:36:36.214Z,16.95
2017-08-11T03:37:42.282Z,16.94
2017-08-11T03:38:48.315Z,16.93
2017-08-11T03:39:54.396Z,16.91
2017-08-11T03:41:00.424Z,16.91
2017-08-11T03:42:06.457Z,16.91
2017-08-11T03:43:19.688Z,16.93
2017-08-11T03:44:26.058Z,16.94
2017-08-11T03:45:43.164Z,16.94
2017-08-11T03:46:48.260Z,16.94
2017-08-11T03:47:54.069Z,16.94
2017-08-11T03:49:00.100Z,16.89
2017-08-11T03:50:05.901Z,16.89
2017-08-11T03:51:11.904Z,16.90
2017-08-11T03:52:17.708Z,16.92
2017-08-11T03:53:23.741Z,16.90
2017-08-11T03:54:29.744Z,16.91
2017-08-11T03:55:35.557Z,16.84
2017-08-11T03:56:41.569Z,16.84
2017-08-11T03:57:47.572Z,16.90
2017-08-11T03:58:53.621Z,16.88
2017-08-11T03:59:59.614Z,16.84
2017-08-11T04:01:05.619Z,16.85
2017-08-11T04:02:11.415Z,16.84
2017-08-11T04:03:17.210Z,16.85
2017-08-11T04:04:22.685Z,16.85
2017-08-11T04:05:28.497Z,16.81
2017-08-11T04:06:34.300Z,16.79
2017-08-11T04:07:40.116Z,16.86
2017-08-11T04:08:46.373Z,16.92
2017-08-11T04:09:52.210Z,16.86
2017-08-11T04:10:58.014Z,16.82
2017-08-11T04:12:03.813Z,16.82
2017-08-11T04:13:09.943Z,16.81
2017-08-11T04:14:16.505Z,16.75
2017-08-11T04:15:23.205Z,16.77
2017-08-11T04:16:29.684Z,16.81
2017-08-11T04:17:35.797Z,16.81
2017-08-11T04:18:41.604Z,16.81
2017-08-11T04:19:47.422Z,16.82
2017-08-11T04:20:53.269Z,16.83
2017-08-11T04:21:59.068Z,16.81
2017-08-11T04:23:04.876Z,16.77
2017-08-11T04:24:10.668Z,16.74
2017-08-11T04:25:16.454Z,16.76
2017-08-11T04:26:22.300Z,16.79
2017-08-11T04:27:28.091Z,16.82
2017-08-11T04:28:33.877Z,16.86
2017-08-11T04:29:39.682Z,16.90
2017-08-11T04:30:45.473Z,16.96
2017-08-11T04:31:51.313Z,16.95
2017-08-11T04:32:57.810Z,16.95
2017-08-11T04:34:04.405Z,16.92
2017-08-11T04:35:10.932Z,16.91
2017-08-11T04:36:16.738Z,16.89
2017-08-11T04:37:22.577Z,16.91
2017-08-11T04:38:28.372Z,16.91
2017-08-11T04:39:34.201Z,16.92
2017-08-11T04:40:40.015Z,16.86
2017-08-11T04:41:45.805Z,16.82
2017-08-11T04:42:51.638Z,16.83
2017-08-11T04:43:57.532Z,16.82
2017-08-11T04:45:03.325Z,16.85
2017-08-11T04:46:09.138Z,16.85
2017-08-11T04:47:14.952Z,16.85
2017-08-11T04:48:20.828Z,16.86
2017-08-11T04:49:26.629Z,16.84
2017-08-11T04:50:32.430Z,16.84
2017-08-11T04:51:38.212Z,16.92
2017-08-11T04:52:44.023Z,16.92
2017-08-11T04:53:49.861Z,16.86
2017-08-11T04:54:55.654Z,16.88
2017-08-11T04:56:01.523Z,16.86
2017-08-11T04:57:07.715Z,16.87
2017-08-11T04:58:13.548Z,16.88
2017-08-11T04:59:19.389Z,16.91
2017-08-11T05:00:25.212Z,16.96
2017-08-11T05:01:31.009Z,16.93
2017-08-11T05:02:36.805Z,16.93
2017-08-11T05:03:42.608Z,16.97
2017-08-11T05:04:48.442Z,17.03
2017-08-11T05:05:54.248Z,17.07
2017-08-11T05:07:00.036Z,17.08
2017-08-11T05:08:05.857Z,17.05
2017-08-11T05:09:11.661Z,17.07
2017-08-11T05:10:17.480Z,17.10
2017-08-11T05:11:23.281Z,17.14
2017-08-11T05:12:29.086Z,17.13
2017-08-11T05:13:34.882Z,17.13
2017-08-11T05:14:40.683Z,17.15
2017-08-11T05:15:46.517Z,17.18
2017-08-11T05:16:52.313Z,17.18
2017-08-11T05:17:58.113Z,17.23
2017-08-11T05:19:03.904Z,17.26
2017-08-11T05:20:09.735Z,17.29
2017-08-11T05:21:15.562Z,17.35
2017-08-11T05:22:21.364Z,17.31
2017-08-11T05:23:27.239Z,17.27
2017-08-11T05:24:33.041Z,17.21
2017-08-11T05:25:38.830Z,17.22
2017-08-11T05:26:44.684Z,17.16
2017-08-11T05:27:50.482Z,17.17
2017-08-11T05:28:56.280Z,17.21
2017-08-11T05:30:02.077Z,17.22
2017-08-11T05:31:07.868Z,17.20
2017-08-11T05:32:13.714Z,17.23
2017-08-11T05:33:19.520Z,17.21
2017-08-11T05:34:25.332Z,17.20
2017-08-11T05:35:31.132Z,17.20
2017-08-11T05:36:36.929Z,17.26
2017-08-11T05:37:42.774Z,17.25
2017-08-11T05:38:49.431Z,17.23
2017-08-11T05:39:55.689Z,17.28
2017-08-11T05:41:01.509Z,17.31
2017-08-11T05:42:07.313Z,17.34
2017-08-11T05:43:13.635Z,17.32
2017-08-11T05:44:20.392Z,17.37
2017-08-11T05:45:26.957Z,17.37
2017-08-11T05:46:33.991Z,17.39
2017-08-11T05:47:42.056Z,17.41
2017-08-11T05:48:50.394Z,17.39
2017-08-11T05:49:59.822Z,17.39
2017-08-11T05:51:07.410Z,17.40
2017-08-11T05:52:13.214Z,17.41
2017-08-11T05:53:19.013Z,17.41
2017-08-11T05:54:24.852Z,17.39
2017-08-11T05:55:30.719Z,17.38
2017-08-11T05:56:36.531Z,17.35
2017-08-11T05:57:43.129Z,17.36
2017-08-11T05:58:49.594Z,17.36
2017-08-11T05:59:57.217Z,17.36
2017-08-11T06:01:03.012Z,17.36
2017-08-11T06:02:08.811Z,17.37
2017-08-11T06:03:14.624Z,17.41
2017-08-11T06:04:20.801Z,17.42
2017-08-11T06:05:27.838Z,17.42
2017-08-11T06:06:33.812Z,17.41
2017-08-11T06:07:39.888Z,17.40
2017-08-11T06:08:45.993Z,17.37
2017-08-11T06:09:51.796Z,17.41
2017-08-11T06:10:57.643Z,17.43
2017-08-11T06:12:03.442Z,17.40
2017-08-11T06:13:09.270Z,17.36
2017-08-11T06:14:15.068Z,17.37
2017-08-11T06:15:20.882Z,17.34
2017-08-11T06:16:26.727Z,17.38
2017-08-11T06:17:32.517Z,17.44
2017-08-11T06:18:38.306Z,17.42
2017-08-11T06:19:44.100Z,17.22
2017-08-11T06:20:49.888Z,17.28
2017-08-11T06:21:55.718Z,17.33
2017-08-11T06:23:01.529Z,17.38
2017-08-11T06:24:07.333Z,17.39
2017-08-11T06:25:13.170Z,17.39
2017-08-11T06:26:18.969Z,17.19
2017-08-11T06:27:24.814Z,17.28
2017-08-11T06:28:30.613Z,17.23
2017-08-11T06:29:36.510Z,17.18
2017-08-11T06:30:42.317Z,17.25
2017-08-11T06:31:48.189Z,17.28
2017-08-11T06:32:54.046Z,17.35
2017-08-11T06:33:59.865Z,17.39
2017-08-11T06:35:05.678Z,17.39
2017-08-11T06:36:11.476Z,17.38
2017-08-11T06:37:17.289Z,17.29
2017-08-11T06:38:23.141Z,17.26
2017-08-11T06:39:28.953Z,17.33
2017-08-11T06:40:34.777Z,17.40
2017-08-11T06:41:40.573Z,17.43
2017-08-11T06:42:46.394Z,17.43
2017-08-11T06:43:52.246Z,17.42
2017-08-11T06:44:58.075Z,17.42
2017-08-11T06:46:03.881Z,17.42
2017-08-11T06:47:09.676Z,17.43
2017-08-11T06:48:15.486Z,17.36
2017-08-11T06:49:21.323Z,17.38
2017-08-11T06:50:27.128Z,17.44
2017-08-11T06:51:32.937Z,17.46
2017-08-11T06:52:38.782Z,17.46
2017-08-11T06:53:44.574Z,17.49
2017-08-11T06:54:50.409Z,17.48
2017-08-11T06:55:56.210Z,17.51
2017-08-11T06:57:02.016Z,17.55
2017-08-11T06:58:07.816Z,17.58
2017-08-11T06:59:13.625Z,17.58
2017-08-11T07:00:19.465Z,17.56
2017-08-11T07:01:25.261Z,17.52
2017-08-11T07:02:31.060Z,17.54
2017-08-11T07:03:36.929Z,17.54
2017-08-11T07:04:42.724Z,17.58
2017-08-11T07:05:48.553Z,17.58
2017-08-11T07:06:54.345Z,17.60
2017-08-11T07:08:00.136Z,17.60
2017-08-11T07:09:05.224Z,17.66
2017-08-11T07:10:11.022Z,17.65
2017-08-11T07:11:16.850Z,17.67
2017-08-11T07:12:22.646Z,17.67
2017-08-11T07:13:28.449Z,17.68
2017-08-11T07:14:34.264Z,17.62
2017-08-11T07:15:42.220Z,17.61
2017-08-11T07:16:48.057Z,17.68
2017-08-11T07:17:53.858Z,17.71
2017-08-11T07:18:59.664Z,17.73
2017-08-11T07:20:05.465Z,17.77
2017-08-11T07:21:11.261Z,17.72
2017-08-11T07:22:17.108Z,17.77
2017-08-11T07:23:22.918Z,17.82
2017-08-11T07:24:28.718Z,17.85
2017-08-11T07:25:34.535Z,17.82
2017-08-11T07:26:40.344Z,17.84
2017-08-11T07:27:46.165Z,17.84
2017-08-11T07:28:51.977Z,17.85
2017-08-11T07:29:57.769Z,17.88
2017-08-11T07:31:03.588Z,17.88
2017-08-11T07:32:09.426Z,17.89
2017-08-11T07:33:20.702Z,17.90
2017-08-11T07:34:28.069Z,17.86
2017-08-11T07:35:33.867Z,17.90
2017-08-11T07:36:39.326Z,17.92
2017-08-11T07:37:45.118Z,17.96
2017-08-11T07:38:50.947Z,18.01
2017-08-11T07:39:56.751Z,18.03
2017-08-11T07:41:02.585Z,18.06
2017-08-11T07:42:08.395Z,18.13
2017-08-11T07:43:14.216Z,18.13
2017-08-11T07:44:20.073Z,18.17
2017-08-11T07:45:25.878Z,18.18
2017-08-11T07:46:31.704Z,18.20
2017-08-11T07:47:37.520Z,18.20
2017-08-11T07:48:43.318Z,18.18
2017-08-11T07:49:48.791Z,18.16
2017-08-11T07:50:54.585Z,18.17
2017-08-11T07:52:00.395Z,18.17
2017-08-11T07:53:06.209Z,18.15
2017-08-11T07:54:12.009Z,18.14
2017-08-11T07:55:17.854Z,18.14
2017-08-11T07:56:23.653Z,17.95
2017-08-11T07:57:29.457Z,17.92
2017-08-11T07:58:35.261Z,17.74
2017-08-11T07:59:41.074Z,17.88
2017-08-11T08:00:46.890Z,17.97
2017-08-11T08:01:52.696Z,18.08
2017-08-11T08:02:58.490Z,18.12
2017-08-11T08:04:04.308Z,18.21
2017-08-11T08:05:10.113Z,18.26
2017-08-11T08:06:15.960Z,18.30
2017-08-11T08:07:21.826Z,18.34
2017-08-11T08:08:27.885Z,18.36
2017-08-11T08:09:33.685Z,18.35
2017-08-11T08:10:39.482Z,18.40
2017-08-11T08:11:45.398Z,18.41
2017-08-11T08:12:51.209Z,18.41
2017-08-11T08:13:57.007Z,18.37
2017-08-11T08:15:07.880Z,18.36
2017-08-11T08:16:13.664Z,18.35
2017-08-11T08:17:19.512Z,18.37
2017-08-11T08:18:25.309Z,18.45
2017-08-11T08:19:31.109Z,18.48
2017-08-11T08:20:36.908Z,18.53
2017-08-11T08:21:42.705Z,18.54
2017-08-11T08:22:48.570Z,18.56
2017-08-11T08:23:54.372Z,18.58
2017-08-11T08:25:00.177Z,18.55
2017-08-11T08:26:05.989Z,18.54
2017-08-11T08:27:11.801Z,18.49
2017-08-11T08:28:17.629Z,18.46
2017-08-11T08:29:23.436Z,18.45
2017-08-11T08:30:29.260Z,18.35
2017-08-11T08:31:35.060Z,18.33
2017-08-11T08:32:40.932Z,18.30
2017-08-11T08:33:46.781Z,18.28
2017-08-11T08:34:52.593Z,18.34
2017-08-11T08:36:00.089Z,18.35
2017-08-11T08:37:05.900Z,18.38
2017-08-11T08:38:11.718Z,18.39
2017-08-11T08:39:17.586Z,18.38
2017-08-11T08:40:23.400Z,18.37
2017-08-11T08:41:29.237Z,18.42
2017-08-11T08:42:35.044Z,18.39
2017-08-11T08:43:40.981Z,18.43
2017-08-11T08:44:46.866Z,18.45
2017-08-11T08:45:52.673Z,18.51
2017-08-11T08:46:58.473Z,18.56
2017-08-11T08:48:03.902Z,18.64
2017-08-11T08:49:09.702Z,18.67
2017-08-11T08:50:15.517Z,18.69
2017-08-11T08:51:21.355Z,18.68
2017-08-11T08:52:27.164Z,18.69
2017-08-11T08:53:32.966Z,18.65
2017-08-11T08:54:38.787Z,18.63
2017-08-11T08:55:44.635Z,18.63
2017-08-11T08:56:54.045Z,18.60
2017-08-11T08:58:03.788Z,18.58
2017-08-11T08:59:09.584Z,18.56
2017-08-11T09:00:15.389Z,18.54
2017-08-11T09:01:21.226Z,18.53
2017-08-11T09:02:27.012Z,18.52
2017-08-11T09:03:32.812Z,18.53
2017-08-11T09:04:38.634Z,18.51
2017-08-11T09:05:44.440Z,18.50
2017-08-11T09:06:50.286Z,18.52
2017-08-11T09:07:56.098Z,18.52
2017-08-11T09:09:01.918Z,18.55
2017-08-11T09:10:07.732Z,18.57
2017-08-11T09:11:13.546Z,18.60
2017-08-11T09:12:19.391Z,18.66
2017-08-11T09:13:25.189Z,18.68
2017-08-11T09:14:30.980Z,18.68
2017-08-11T09:15:36.791Z,18.66
2017-08-11T09:16:42.584Z,18.67
2017-08-11T09:17:51.845Z,18.62
2017-08-11T09:19:01.782Z,18.60
2017-08-11T09:20:10.652Z,18.57
2017-08-11T09:21:16.078Z,18.58
2017-08-11T09:22:21.884Z,18.57
2017-08-11T09:23:27.730Z,18.53
2017-08-11T09:24:44.561Z,18.48
2017-08-11T09:26:01.406Z,18.47
2017-08-11T09:27:18.273Z,18.49
2017-08-11T09:28:35.160Z,18.47
2017-08-11T09:29:51.905Z,18.49
2017-08-11T09:31:08.885Z,18.55
2017-08-11T09:32:25.883Z,18.58
2017-08-11T09:33:42.776Z,18.61
2017-08-11T09:34:59.768Z,18.67
2017-08-11T09:36:16.705Z,18.71
2017-08-11T09:37:22.514Z,18.77
2017-08-11T09:38:31.236Z,18.76
2017-08-11T09:39:41.739Z,18.76
2017-08-11T09:40:47.733Z,18.71
2017-08-11T09:41:53.763Z,18.75
2017-08-11T09:42:59.784Z,18.70
2017-08-11T09:44:05.781Z,18.70
2017-08-11T09:45:11.856Z,18.67
2017-08-11T09:46:17.857Z,18.60
2017-08-11T09:47:23.852Z,18.60
2017-08-11T09:48:29.855Z,18.63
2017-08-11T09:49:35.862Z,18.66
2017-08-11T09:50:41.908Z,18.68
2017-08-11T09:51:47.910Z,18.68
2017-08-11T09:52:53.912Z,18.71
2017-08-11T09:53:59.900Z,18.68
2017-08-11T09:55:05.900Z,18.71
2017-08-11T09:56:11.928Z,18.72
2017-08-11T09:57:17.928Z,18.73
2017-08-11T09:58:23.932Z,18.73
2017-08-11T09:59:37.752Z,18.70
2017-08-11T10:00:43.753Z,18.69
2017-08-11T10:01:49.793Z,18.69
2017-08-11T10:02:55.796Z,18.73
2017-08-11T10:04:01.796Z,18.74
2017-08-11T10:05:07.802Z,18.80
2017-08-11T10:06:13.805Z,18.81
2017-08-11T10:07:19.836Z,18.89
2017-08-11T10:08:25.843Z,18.92
2017-08-11T10:09:38.809Z,18.98
2017-08-11T10:10:56.733Z,19.08
2017-08-11T10:12:05.823Z,19.16
2017-08-11T10:13:11.854Z,19.23
2017-08-11T10:14:17.849Z,19.26
2017-08-11T10:15:23.849Z,19.30
2017-08-11T10:16:29.849Z,19.30
2017-08-11T10:17:35.857Z,19.33
2017-08-11T10:18:41.969Z,19.29
2017-08-11T10:19:47.970Z,19.26
2017-08-11T10:20:53.964Z,19.23
2017-08-11T10:21:59.965Z,19.20
2017-08-11T10:23:05.959Z,19.23
2017-08-11T10:24:11.993Z,19.23
2017-08-11T10:25:17.984Z,19.30
2017-08-11T10:26:23.986Z,19.31
2017-08-11T10:27:31.800Z,19.44
2017-08-11T10:28:37.793Z,19.56
2017-08-11T10:29:43.835Z,19.69
2017-08-11T10:30:49.850Z,19.80
2017-08-11T10:31:55.849Z,19.84
2017-08-11T10:33:01.863Z,19.94
2017-08-11T10:34:08.061Z,19.94
2017-08-11T10:35:14.144Z,19.93
2017-08-11T10:36:20.176Z,19.88
2017-08-11T10:37:26.177Z,19.78
2017-08-11T10:38:32.181Z,19.69
2017-08-11T10:39:38.181Z,19.66
2017-08-11T10:40:44.202Z,19.67
2017-08-11T10:41:57.539Z,19.67
2017-08-11T10:43:03.573Z,19.65
2017-08-11T10:44:09.582Z,19.58
2017-08-11T10:45:15.607Z,19.61
2017-08-11T10:46:21.649Z,19.53
2017-08-11T10:47:27.642Z,19.53
2017-08-11T10:48:33.633Z,19.46
2017-08-11T10:49:39.630Z,19.41
2017-08-11T10:50:45.632Z,19.37
2017-08-11T10:51:51.664Z,19.30
2017-08-11T10:52:57.676Z,19.26
2017-08-11T10:54:03.684Z,19.29
2017-08-11T10:55:09.681Z,19.31
2017-08-11T10:56:15.677Z,19.32
2017-08-11T10:57:21.714Z,19.35
2017-08-11T10:58:27.704Z,19.33
2017-08-11T10:59:33.708Z,19.30
2017-08-11T11:00:39.714Z,19.29
2017-08-11T11:01:45.721Z,19.24
2017-08-11T11:02:54.827Z,19.22
2017-08-11T11:04:04.185Z,19.21
2017-08-11T11:05:10.229Z,19.24
2017-08-11T11:06:16.231Z,19.27
2017-08-11T11:07:22.231Z,19.33
2017-08-11T11:08:28.269Z,19.42
2017-08-11T11:09:34.303Z,19.51
2017-08-11T11:10:40.312Z,19.54
2017-08-11T11:11:46.313Z,19.59
2017-08-11T11:12:52.321Z,19.61
2017-08-11T11:13:58.364Z,19.65
2017-08-11T11:15:04.364Z,19.67
2017-08-11T11:16:10.384Z,19.69
2017-08-11T11:17:16.383Z,19.69
2017-08-11T11:18:22.394Z,19.71
2017-08-11T11:19:28.445Z,19.74
2017-08-11T11:20:34.450Z,19.72
2017-08-11T11:23:26.074Z,19.59
2017-08-11T11:24:35.488Z,19.55
2017-08-11T11:25:41.575Z,19.49
2017-08-11T11:26:47.580Z,19.48
2017-08-11T11:28:01.470Z,19.46
2017-08-11T11:29:11.223Z,19.45
2017-08-11T11:30:17.245Z,19.47
2017-08-11T11:31:23.241Z,19.45
2017-08-11T11:32:29.244Z,19.52
2017-08-11T11:33:35.247Z,19.50
2017-08-11T11:34:41.341Z,19.51
2017-08-11T11:35:47.373Z,19.49
2017-08-11T11:36:53.390Z,19.46
2017-08-11T11:37:59.405Z,19.43
2017-08-11T11:39:04.533Z,19.44
2017-08-11T11:40:10.537Z,19.38
2017-08-11T11:41:16.574Z,19.33
2017-08-11T11:42:22.573Z,19.32
2017-08-11T11:43:28.602Z,19.29
2017-08-11T11:44:38.448Z,19.33
2017-08-11T11:45:47.978Z,19.30
2017-08-11T11:46:54.004Z,19.29
2017-08-11T11:48:00.002Z,19.26
2017-08-11T11:49:05.814Z,19.27
2017-08-11T11:51:53.886Z,19.27
2017-08-11T11:52:59.724Z,19.22
2017-08-11T11:54:15.294Z,19.25
2017-08-11T11:55:21.304Z,19.24
2017-08-11T11:56:27.109Z,19.25
2017-08-11T11:57:33.156Z,19.26
2017-08-11T11:58:39.157Z,19.24
2017-08-11T11:59:45.158Z,19.23
2017-08-11T12:00:51.148Z,19.25
2017-08-11T12:01:57.143Z,19.21
2017-08-11T12:03:03.179Z,19.20
2017-08-11T12:04:08.824Z,19.21
2017-08-11T12:05:14.841Z,19.22
2017-08-11T12:06:20.670Z,19.20
2017-08-11T12:07:26.140Z,19.20
2017-08-11T12:08:31.976Z,19.20
2017-08-11T12:09:37.980Z,19.20
2017-08-11T12:10:43.989Z,19.18
2017-08-11T12:11:50.013Z,19.18
2017-08-11T12:12:56.022Z,19.09
2017-08-11T12:14:02.059Z,19.11
2017-08-11T12:15:08.060Z,19.14
2017-08-11T12:16:14.065Z,19.11
2017-08-11T12:17:20.056Z,19.12
2017-08-11T12:18:26.062Z,19.13
2017-08-11T12:19:32.093Z,19.13
2017-08-11T12:20:38.109Z,19.13
2017-08-11T12:21:44.105Z,19.13
2017-08-11T12:22:50.097Z,19.10
2017-08-11T12:23:56.097Z,19.05
2017-08-11T12:25:02.133Z,19.01
2017-08-11T12:26:08.125Z,19.04
2017-08-11T12:27:14.135Z,19.06
2017-08-11T12:28:20.136Z,19.08
2017-08-11T12:29:26.136Z,19.10
2017-08-11T12:30:32.176Z,19.09
2017-08-11T12:31:38.169Z,19.04
2017-08-11T12:32:44.168Z,19.06
2017-08-11T12:33:50.171Z,19.06
2017-08-11T12:34:56.177Z,19.04
2017-08-11T12:36:02.230Z,19.02
2017-08-11T12:37:08.038Z,19.02
2017-08-11T12:38:14.042Z,19.01
2017-08-11T12:39:20.044Z,18.92
2017-08-11T12:40:26.052Z,18.91
2017-08-11T12:41:32.106Z,18.93
2017-08-11T12:42:38.121Z,18.93
2017-08-11T12:43:44.158Z,18.96
2017-08-11T12:44:50.989Z,18.96
2017-08-11T12:45:56.993Z,18.92
2017-08-11T12:47:03.117Z,18.86
2017-08-11T12:48:10.080Z,18.85
2017-08-11T12:49:16.087Z,18.86
2017-08-11T12:50:22.090Z,18.89
2017-08-11T12:51:28.109Z,18.86
2017-08-11T12:52:34.150Z,18.84
2017-08-11T12:53:40.132Z,18.81
2017-08-11T12:54:46.130Z,18.77
2017-08-11T12:55:52.209Z,18.77
2017-08-11T12:56:58.207Z,18.79
2017-08-11T12:58:04.252Z,18.80
2017-08-11T12:59:10.253Z,18.82
2017-08-11T13:00:16.251Z,18.83
2017-08-11T13:01:22.261Z,18.83
2017-08-11T13:02:28.298Z,18.83
2017-08-11T13:03:34.345Z,18.83
2017-08-11T13:04:40.393Z,18.76
2017-08-11T13:05:46.377Z,18.74
2017-08-11T13:06:52.260Z,18.75
2017-08-11T13:08:04.092Z,18.72
2017-08-11T13:09:10.113Z,18.70
2017-08-11T13:10:16.121Z,18.71
2017-08-11T13:11:21.929Z,18.71
2017-08-11T13:12:27.933Z,18.71
2017-08-11T13:13:33.946Z,18.72
2017-08-11T13:14:39.989Z,18.76
2017-08-11T13:15:45.985Z,18.74
2017-08-11T13:16:52.076Z,18.71
2017-08-11T13:17:58.071Z,18.72
2017-08-11T13:19:04.064Z,18.70
2017-08-11T13:20:10.096Z,18.72
2017-08-11T13:21:16.104Z,18.69
2017-08-11T13:22:22.102Z,18.66
2017-08-11T13:23:28.098Z,18.62
2017-08-11T13:24:34.113Z,18.66
2017-08-11T13:25:40.141Z,18.68
2017-08-11T13:26:46.137Z,18.67
2017-08-11T13:27:52.217Z,18.66
2017-08-11T13:28:58.221Z,18.66
2017-08-11T13:30:04.225Z,18.68
2017-08-11T13:31:10.250Z,18.66
2017-08-11T13:32:16.256Z,18.68
2017-08-11T13:33:22.265Z,18.69
2017-08-11T13:34:28.268Z,18.68
2017-08-11T13:35:34.289Z,18.62
2017-08-11T13:36:40.331Z,18.60
2017-08-11T13:37:46.325Z,18.60
2017-08-11T13:38:52.407Z,18.57
2017-08-11T13:39:58.408Z,18.61
2017-08-11T13:41:04.426Z,18.62
2017-08-11T13:42:10.479Z,18.62
2017-08-11T13:43:16.481Z,18.65
2017-08-11T13:44:22.520Z,18.64
2017-08-11T13:45:28.517Z,18.60
2017-08-11T13:46:34.537Z,18.59
2017-08-11T13:47:40.577Z,18.59
2017-08-11T13:48:46.588Z,18.59
2017-08-11T13:49:52.692Z,18.60
2017-08-11T13:50:58.706Z,18.57
2017-08-11T13:52:04.717Z,18.58
2017-08-11T13:53:10.762Z,18.58
2017-08-11T13:54:16.757Z,18.58
2017-08-11T13:55:22.757Z,18.59
2017-08-11T13:56:29.525Z,18.57
2017-08-11T13:57:36.226Z,18.57
2017-08-11T13:58:43.450Z,18.59
2017-08-11T13:59:50.148Z,18.60
2017-08-11T14:00:56.864Z,18.58
2017-08-11T14:02:02.857Z,18.60
2017-08-11T14:03:08.852Z,18.63
2017-08-11T14:04:14.896Z,18.64
2017-08-11T14:05:20.936Z,18.61
2017-08-11T14:06:26.940Z,18.64
2017-08-11T14:07:32.934Z,18.68
2017-08-11T14:08:38.967Z,18.67
2017-08-11T14:09:45.018Z,18.69
2017-08-11T14:10:51.020Z,18.62
2017-08-11T14:11:57.017Z,18.65
2017-08-11T14:13:03.031Z,18.68
2017-08-11T14:14:09.045Z,18.67
2017-08-11T14:15:15.089Z,18.61
2017-08-11T14:16:21.088Z,18.60
2017-08-11T14:17:27.092Z,18.63